Time;durP1;ratioP1;P1;durP2;ratioP2;P2;SDS_P1;SDS_P2;PMS_P1;PMS_P2;Temp;Humidity;BMP_temperature;BMP_pressure;BME280_temperature;BME280_humidity;BME280_pressure;Samples;Min_cycle;Max_cycle;Signal;HPM_P1;HPM_P2
2021/12/08 00:00:12;;;;;;;4.32;3.60;;;4.20;99.90;;;;;;6282303;22;20148;-53
2021/12/08 00:02:38;;;;;;;4.53;3.63;;;4.30;99.90;;;;;;6284018;22;20184;-54
2021/12/08 00:05:05;;;;;;;4.13;3.23;;;4.00;99.90;;;;;;6282443;22;20624;-54
2021/12/08 00:07:32;;;;;;;4.88;3.75;;;4.20;99.90;;;;;;6284725;22;20394;-53
2021/12/08 00:13:07;;;;;;;3.85;3.10;;;4.30;99.90;;;;;;6232489;22;20297;-53
2021/12/08 00:15:33;;;;;;;5.57;3.78;;;4.30;99.90;;;;;;6283792;22;20524;-53
2021/12/08 00:17:59;;;;;;;4.90;4.00;;;4.50;99.90;;;;;;6283065;22;20153;-53
2021/12/08 00:20:29;;;;;;;7.38;2.75;;;4.00;99.90;;;;;;6282473;22;20220;-54
2021/12/08 00:22:55;;;;;;;4.15;3.53;;;4.60;99.90;;;;;;6274014;22;20644;-54
2021/12/08 00:25:21;;;;;;;4.30;3.00;;;4.60;99.90;;;;;;6283842;22;20157;-53
2021/12/08 00:27:47;;;;;;;3.33;2.60;;;4.20;99.80;;;;;;6284151;22;20378;-53
2021/12/08 00:30:13;;;;;;;3.53;2.58;;;4.90;99.00;;;;;;6272086;22;20209;-53
2021/12/08 00:32:39;;;;;;;2.10;1.90;;;4.70;96.70;;;;;;6283973;22;20205;-53
2021/12/08 00:35:06;;;;;;;2.50;1.90;;;4.80;94.90;;;;;;6284229;22;20461;-53
2021/12/08 00:37:32;;;;;;;2.10;1.90;;;5.10;95.20;;;;;;6283382;22;20149;-53
2021/12/08 00:39:58;;;;;;;2.47;2.00;;;5.20;93.80;;;;;;6281730;22;20146;-53
2021/12/08 00:42:24;;;;;;;2.17;1.88;;;5.00;94.30;;;;;;6272902;22;20168;-53
2021/12/08 00:44:50;;;;;;;3.35;1.90;;;5.10;93.90;;;;;;6284389;22;20153;-54
2021/12/08 00:47:16;;;;;;;3.30;2.20;;;5.00;94.50;;;;;;6283398;22;20151;-53
2021/12/08 00:49:42;;;;;;;3.00;2.00;;;5.00;94.90;;;;;;6273609;22;20188;-53
2021/12/08 00:52:08;;;;;;;2.47;2.00;;;4.90;96.40;;;;;;6283631;22;20216;-52
2021/12/08 00:54:34;;;;;;;2.78;2.17;;;4.90;97.30;;;;;;6284387;22;20405;-53
2021/12/08 00:57:01;;;;;;;2.37;2.20;;;4.80;97.90;;;;;;6282683;22;20231;-52
2021/12/08 00:59:27;;;;;;;2.60;2.03;;;4.80;98.70;;;;;;6272813;22;20570;-54
2021/12/08 01:01:53;;;;;;;2.35;2.10;;;4.80;99.40;;;;;;6283278;22;20149;-53
2021/12/08 01:04:19;;;;;;;3.15;2.60;;;4.70;99.20;;;;;;6283819;22;20249;-54
2021/12/08 01:06:45;;;;;;;2.40;2.13;;;4.70;99.80;;;;;;6284099;22;20181;-53
2021/12/08 01:09:12;;;;;;;7.13;2.07;;;4.00;99.90;;;;;;6283864;22;20156;-53
2021/12/08 01:11:39;;;;;;;4.35;2.10;;;4.50;99.90;;;;;;6273163;22;20153;-54
2021/12/08 01:14:07;;;;;;;2.33;2.15;;;4.70;99.90;;;;;;6273332;22;20252;-53
2021/12/08 01:16:33;;;;;;;2.65;2.10;;;4.40;99.90;;;;;;6273431;22;20154;-53
2021/12/08 01:18:58;;;;;;;1.83;1.67;;;4.60;99.90;;;;;;6272471;22;20220;-53
2021/12/08 01:21:24;;;;;;;2.23;2.03;;;4.60;99.90;;;;;;6282575;22;20433;-53
2021/12/08 01:23:50;;;;;;;2.83;2.27;;;4.50;99.90;;;;;;6273340;22;20589;-53
2021/12/08 01:26:16;;;;;;;3.03;2.38;;;4.50;99.90;;;;;;6283947;22;20183;-53
2021/12/08 01:28:44;;;;;;;4.22;2.20;;;4.40;99.90;;;;;;6284365;22;20182;-53
2021/12/08 01:31:09;;;;;;;2.70;2.47;;;4.20;99.90;;;;;;6283589;22;20160;-53
2021/12/08 01:33:36;;;;;;;8.10;2.50;;;4.30;99.90;;;;;;6271403;22;20717;-54
2021/12/08 01:36:04;;;;;;;2.50;2.30;;;4.20;99.90;;;;;;6273759;22;20395;-53
2021/12/08 01:38:32;;;;;;;3.58;2.03;;;4.40;99.90;;;;;;6282808;22;20140;-53
2021/12/08 01:40:57;;;;;;;3.15;2.10;;;4.10;99.90;;;;;;6282971;22;20231;-54
2021/12/08 01:43:26;;;;;;;2.30;2.10;;;4.50;99.90;;;;;;6283290;22;20265;-53
2021/12/08 01:46:02;;;;;;;3.35;2.30;;;4.20;99.90;;;;;;6273311;22;20395;-53
2021/12/08 01:48:33;;;;;;;2.60;2.38;;;3.90;99.90;;;;;;6283395;22;20494;-53
2021/12/08 01:51:03;;;;;;;6.40;2.83;;;4.10;99.90;;;;;;6283275;22;20160;-54
2021/12/08 01:53:28;;;;;;;3.35;2.13;;;3.50;99.90;;;;;;6283719;22;20234;-54
2021/12/08 01:55:55;;;;;;;3.57;1.83;;;4.30;99.90;;;;;;6282783;22;20487;-54
2021/12/08 01:58:22;;;;;;;8.85;4.72;;;4.30;99.90;;;;;;6281909;22;20155;-54
2021/12/08 02:00:56;;;;;;;3.75;2.00;;;4.40;99.90;;;;;;6282384;22;20153;-54
2021/12/08 02:03:23;;;;;;;4.18;2.80;;;4.10;99.90;;;;;;6282815;22;20207;-53
2021/12/08 02:05:50;;;;;;;2.70;2.33;;;3.70;99.90;;;;;;6283795;22;20489;-53
2021/12/08 02:08:16;;;;;;;2.42;1.98;;;4.20;99.90;;;;;;6282879;22;20150;-52
2021/12/08 02:10:43;;;;;;;3.65;2.13;;;4.20;99.90;;;;;;6282868;22;20588;-53
2021/12/08 02:13:09;;;;;;;1.88;1.77;;;4.00;99.90;;;;;;6283733;22;20189;-53
2021/12/08 02:15:37;;;;;;;2.13;1.93;;;4.20;99.90;;;;;;6283645;22;20188;-53
2021/12/08 02:18:04;;;;;;;2.63;1.77;;;4.30;99.90;;;;;;6282733;22;20384;-53
2021/12/08 02:20:30;;;;;;;2.45;1.80;;;4.40;99.90;;;;;;6281710;22;20157;-54
2021/12/08 02:22:56;;;;;;;2.30;2.10;;;4.50;99.90;;;;;;6272616;22;20419;-53
2021/12/08 02:25:24;;;;;;;2.85;2.10;;;4.20;99.90;;;;;;6282467;22;20463;-53
2021/12/08 02:27:52;;;;;;;4.70;2.40;;;4.50;99.90;;;;;;6282424;22;20523;-53
2021/12/08 02:30:31;;;;;;;2.50;2.30;;;4.30;99.90;;;;;;6282307;22;20231;-54
2021/12/08 02:49:09;;;;;;;2.45;2.25;;;4.40;99.90;;;;;;6283091;22;20183;-53
2021/12/08 02:51:36;;;;;;;3.70;2.60;;;4.10;99.90;;;;;;6282327;22;20238;-53
2021/12/08 02:54:02;;;;;;;2.13;1.80;;;4.50;99.90;;;;;;6282011;22;20185;-53
2021/12/08 02:56:30;;;;;;;2.35;2.05;;;4.50;99.90;;;;;;6270504;22;20245;-53
2021/12/08 02:58:56;;;;;;;3.72;2.55;;;4.50;99.90;;;;;;6281498;22;20156;-53
2021/12/08 03:01:23;;;;;;;2.70;2.30;;;4.30;99.90;;;;;;6282063;22;20193;-53
2021/12/08 03:03:49;;;;;;;3.50;2.67;;;4.30;99.90;;;;;;6282114;22;20184;-53
2021/12/08 03:06:15;;;;;;;6.13;3.25;;;4.30;99.90;;;;;;6283195;22;20148;-53
2021/12/08 03:08:41;;;;;;;3.58;2.80;;;4.30;99.90;;;;;;6282648;22;20164;-53
2021/12/08 03:11:08;;;;;;;2.47;2.27;;;4.20;99.90;;;;;;6282456;22;20182;-54
2021/12/08 03:13:42;;;;;;;3.00;2.70;;;4.40;99.90;;;;;;6282373;22;20431;-53
2021/12/08 03:16:10;;;;;;;2.65;2.22;;;4.30;99.90;;;;;;6271792;22;20149;-54
2021/12/08 03:18:38;;;;;;;2.90;2.60;;;4.20;99.90;;;;;;6281556;22;20148;-53
2021/12/08 03:21:08;;;;;;;3.85;3.47;;;4.60;99.90;;;;;;6282473;22;20156;-54
2021/12/08 03:24:16;;;;;;;2.70;2.20;;;4.30;99.90;;;;;;6282250;22;20169;-53
2021/12/08 03:26:32;;;;;;;2.50;2.30;;;4.60;99.90;;;;;;6267689;22;20156;-53
2021/12/08 03:29:03;;;;;;;2.67;2.47;;;4.40;99.90;;;;;;6282090;22;20136;-54
2021/12/08 03:31:34;;;;;;;4.35;2.60;;;4.40;99.90;;;;;;6270003;22;20168;-53
2021/12/08 03:34:00;;;;;;;3.15;2.88;;;4.50;99.90;;;;;;6280708;22;20188;-53
2021/12/08 03:36:26;;;;;;;3.00;2.70;;;4.40;99.90;;;;;;6269592;22;20302;-54
2021/12/08 03:38:52;;;;;;;3.13;2.83;;;4.50;99.90;;;;;;6281268;22;20384;-53
2021/12/08 03:41:18;;;;;;;2.87;2.57;;;4.20;99.90;;;;;;6269507;22;20482;-53
2021/12/08 03:43:43;;;;;;;2.87;2.67;;;4.60;99.90;;;;;;6281079;22;20179;-54
2021/12/08 03:46:12;;;;;;;3.30;3.00;;;4.70;99.90;;;;;;6281779;22;20200;-54
2021/12/08 03:48:47;;;;;;;3.05;2.80;;;4.40;99.90;;;;;;6281216;22;20157;-54
2021/12/08 03:51:14;;;;;;;3.00;2.65;;;4.50;99.90;;;;;;6281443;22;20245;-53
2021/12/08 03:53:39;;;;;;;4.90;2.90;;;4.60;99.90;;;;;;6271572;22;20674;-53
2021/12/08 03:56:06;;;;;;;2.77;2.53;;;4.60;99.90;;;;;;6280921;22;20276;-54
2021/12/08 03:58:32;;;;;;;3.65;2.72;;;4.50;99.90;;;;;;6280423;22;20178;-53
2021/12/08 04:00:59;;;;;;;2.90;2.60;;;4.50;99.90;;;;;;6280490;22;20503;-54
2021/12/08 04:03:29;;;;;;;4.15;2.75;;;4.60;99.90;;;;;;6280840;22;20261;-53
2021/12/08 04:05:57;;;;;;;3.30;3.00;;;4.60;99.90;;;;;;6280586;22;20149;-53
2021/12/08 04:08:42;;;;;;;3.60;2.70;;;4.50;99.90;;;;;;6272153;22;20153;-53
2021/12/08 04:11:10;;;;;;;3.05;2.78;;;4.50;99.90;;;;;;6281721;22;20516;-53
2021/12/08 04:13:38;;;;;;;3.20;2.90;;;4.50;99.90;;;;;;6281515;22;20205;-54
2021/12/08 04:16:05;;;;;;;5.10;3.40;;;4.50;99.90;;;;;;6281125;22;20152;-53
2021/12/08 04:18:31;;;;;;;3.75;3.20;;;4.50;99.90;;;;;;6281245;22;20145;-53
2021/12/08 04:20:59;;;;;;;5.03;3.70;;;4.10;99.90;;;;;;6281076;22;20144;-53
2021/12/08 04:23:27;;;;;;;2.95;2.60;;;4.60;99.90;;;;;;6284204;22;20544;-54
2021/12/08 04:25:57;;;;;;;3.00;2.80;;;4.70;99.90;;;;;;6284001;22;20157;-54
2021/12/08 04:28:31;;;;;;;3.30;3.00;;;5.00;99.90;;;;;;6284355;22;20759;-53
2021/12/08 04:31:02;;;;;;;2.90;2.70;;;4.70;99.90;;;;;;6283869;22;20229;-54
2021/12/08 04:33:28;;;;;;;3.92;3.10;;;5.00;99.90;;;;;;6283414;22;20351;-54
2021/12/08 04:35:55;;;;;;;5.13;3.10;;;4.40;99.90;;;;;;6283498;22;20146;-54
2021/12/08 04:38:29;;;;;;;3.78;3.45;;;4.10;99.90;;;;;;6283498;22;20152;-53
2021/12/08 04:41:06;;;;;;;4.55;3.70;;;4.60;99.90;;;;;;6273054;22;20156;-54
2021/12/08 04:43:44;;;;;;;4.43;3.33;;;4.70;99.90;;;;;;6283996;22;20514;-54
2021/12/08 04:46:25;;;;;;;4.45;3.20;;;4.70;99.90;;;;;;6274324;22;20183;-53
2021/12/08 05:10:16;;;;;;;6.43;4.20;;;5.20;99.90;;;;;;6248529;22;20156;-52
2021/12/08 05:12:44;;;;;;;4.95;4.35;;;4.90;99.90;;;;;;6284182;22;20187;-52
2021/12/08 05:15:16;;;;;;;5.60;5.00;;;5.00;99.90;;;;;;6273528;22;20500;-51
2021/12/08 05:17:48;;;;;;;4.78;4.30;;;4.60;99.90;;;;;;6273435;22;20264;-51
2021/12/08 05:20:22;;;;;;;5.32;4.63;;;5.20;99.90;;;;;;6280948;22;20170;-52
2021/12/08 05:22:58;;;;;;;5.00;4.50;;;4.30;99.90;;;;;;6272587;22;20690;-53
2021/12/08 05:25:26;;;;;;;5.20;4.65;;;5.10;99.90;;;;;;6282939;22;20480;-53
2021/12/08 05:27:55;;;;;;;4.85;4.35;;;4.90;99.90;;;;;;6283008;22;20636;-52
2021/12/08 05:30:31;;;;;;;6.20;5.00;;;4.60;99.90;;;;;;6282320;22;20149;-52
2021/12/08 05:32:59;;;;;;;4.55;4.15;;;5.10;99.90;;;;;;6271384;22;20189;-52
2021/12/08 05:35:26;;;;;;;5.35;4.85;;;5.30;99.90;;;;;;6282834;22;20448;-51
2021/12/08 05:37:53;;;;;;;7.03;5.28;;;5.30;99.90;;;;;;6273900;22;20231;-51
2021/12/08 05:40:32;;;;;;;5.10;4.50;;;5.30;99.90;;;;;;6272619;22;20366;-52
2021/12/08 05:42:58;;;;;;;4.47;4.00;;;5.60;99.90;;;;;;6282931;22;20175;-53
2021/12/08 05:45:24;;;;;;;6.43;4.80;;;5.30;99.90;;;;;;6272136;22;20646;-53
2021/12/08 05:47:53;;;;;;;7.00;5.15;;;5.10;99.90;;;;;;6282923;22;20377;-53
2021/12/08 05:50:31;;;;;;;5.95;4.68;;;5.30;99.90;;;;;;6272356;22;20251;-53
2021/12/08 05:52:57;;;;;;;9.90;6.55;;;5.20;99.90;;;;;;6283055;22;20678;-53
2021/12/08 05:55:23;;;;;;;5.78;4.85;;;5.30;99.90;;;;;;6283217;22;20671;-53
2021/12/08 05:57:49;;;;;;;5.90;4.67;;;5.50;99.90;;;;;;6271994;22;20158;-53
2021/12/08 06:00:27;;;;;;;5.22;4.53;;;5.30;99.90;;;;;;6283895;22;20165;-52
2021/12/08 06:02:53;;;;;;;6.45;5.63;;;5.60;99.90;;;;;;6273101;22;20258;-52
2021/12/08 06:05:19;;;;;;;5.90;5.22;;;5.30;99.90;;;;;;6269624;22;20229;-53
2021/12/08 06:07:46;;;;;;;5.38;4.80;;;5.30;99.90;;;;;;6283127;22;20154;-53
2021/12/08 06:10:18;;;;;;;5.97;4.93;;;5.90;99.90;;;;;;6271250;22;20245;-53
2021/12/08 06:12:44;;;;;;;6.47;5.80;;;6.00;99.90;;;;;;6283294;22;20637;-53
2021/12/08 06:15:10;;;;;;;6.20;5.60;;;5.40;99.90;;;;;;6283638;22;20152;-53
2021/12/08 06:17:36;;;;;;;8.48;6.03;;;5.60;99.90;;;;;;6272716;22;20164;-53
2021/12/08 06:20:05;;;;;;;7.03;5.23;;;5.40;99.90;;;;;;6271100;22;20158;-53
2021/12/08 06:22:31;;;;;;;8.23;5.50;;;5.60;99.90;;;;;;6282848;22;20429;-53
2021/12/08 06:24:56;;;;;;;7.13;5.57;;;5.40;99.90;;;;;;6283131;22;20235;-53
2021/12/08 06:27:22;;;;;;;5.23;4.73;;;5.40;99.90;;;;;;6272528;22;20390;-52
2021/12/08 06:29:48;;;;;;;7.50;6.80;;;5.00;99.90;;;;;;6283398;22;20443;-52
2021/12/08 06:32:15;;;;;;;7.68;6.00;;;5.60;99.90;;;;;;6272405;22;20540;-53
2021/12/08 06:34:47;;;;;;;6.38;5.68;;;5.60;99.90;;;;;;6283006;22;20145;-53
2021/12/08 06:37:30;;;;;;;5.30;4.80;;;5.80;99.90;;;;;;6281605;22;20161;-53
2021/12/08 06:40:07;;;;;;;5.63;5.07;;;5.80;99.90;;;;;;6272550;22;20152;-53
2021/12/08 06:42:37;;;;;;;7.32;4.72;;;5.80;99.90;;;;;;6282792;22;20623;-53
2021/12/08 06:45:06;;;;;;;6.25;5.18;;;5.70;99.90;;;;;;6282662;22;20162;-53
2021/12/08 06:47:33;;;;;;;6.00;5.15;;;5.90;99.90;;;;;;6282478;22;20161;-53
2021/12/08 06:50:04;;;;;;;5.93;4.93;;;6.00;99.90;;;;;;6281374;22;20152;-53
2021/12/08 06:52:38;;;;;;;5.60;5.00;;;5.60;99.90;;;;;;6281881;22;20251;-53
2021/12/08 06:55:23;;;;;;;7.85;5.53;;;6.20;99.90;;;;;;6282669;22;20134;-53
2021/12/08 06:57:56;;;;;;;8.85;6.13;;;6.40;99.90;;;;;;6282539;22;20176;-53
2021/12/08 07:00:55;;;;;;;9.82;6.93;;;6.20;99.90;;;;;;6282127;22;20477;-53
2021/12/08 07:06:29;;;;;;;4.72;4.22;;;6.10;99.90;;;;;;6283883;22;20138;-53
2021/12/08 07:08:58;;;;;;;5.80;4.30;;;6.00;99.90;;;;;;6282769;22;20208;-53
2021/12/08 07:11:26;;;;;;;4.28;3.88;;;5.60;99.90;;;;;;6282061;22;20610;-54
2021/12/08 07:13:55;;;;;;;4.60;3.67;;;6.00;99.90;;;;;;6277263;22;20258;-51
2021/12/08 07:16:34;;;;;;;8.23;6.85;;;6.00;99.90;;;;;;6270727;22;20576;-51
2021/12/08 07:19:10;;;;;;;4.65;4.25;;;5.80;99.90;;;;;;6271660;22;20162;-51
2021/12/08 07:21:43;;;;;;;5.45;4.40;;;5.80;99.90;;;;;;6270729;22;20146;-51
2021/12/08 07:24:20;;;;;;;4.03;3.60;;;5.80;99.90;;;;;;6282550;22;20177;-51
2021/12/08 07:26:51;;;;;;;5.07;4.57;;;5.80;99.90;;;;;;6281925;22;20164;-51
2021/12/08 07:29:22;;;;;;;6.38;5.75;;;6.00;99.90;;;;;;6270666;22;20163;-51
2021/12/08 07:31:56;;;;;;;6.18;5.57;;;5.80;99.90;;;;;;6272974;22;20238;-51
2021/12/08 07:34:25;;;;;;;9.30;5.55;;;5.90;99.90;;;;;;6272105;22;20555;-53
2021/12/08 07:36:59;;;;;;;8.77;5.43;;;5.70;99.90;;;;;;6282760;22;20220;-50
2021/12/08 07:39:30;;;;;;;6.07;5.20;;;5.20;99.90;;;;;;6273333;22;20156;-50
2021/12/08 07:42:02;;;;;;;7.70;6.03;;;5.70;99.90;;;;;;6272583;22;20527;-51
2021/12/08 07:44:29;;;;;;;6.35;5.65;;;5.70;99.90;;;;;;6283415;22;20181;-51
2021/12/08 07:47:05;;;;;;;5.82;5.22;;;5.90;99.90;;;;;;6273033;22;20213;-51
2021/12/08 07:49:36;;;;;;;5.10;4.60;;;5.80;99.90;;;;;;6283688;22;20154;-51
2021/12/08 07:52:13;;;;;;;4.97;4.47;;;6.00;99.90;;;;;;6281445;22;20156;-51
2021/12/08 07:54:42;;;;;;;7.00;4.85;;;6.00;99.90;;;;;;6281594;22;20145;-51
2021/12/08 07:57:13;;;;;;;6.53;4.70;;;5.70;99.90;;;;;;6275050;22;20187;-53
2021/12/08 07:59:41;;;;;;;4.22;3.83;;;6.10;99.90;;;;;;6273857;22;20151;-52
2021/12/08 08:02:07;;;;;;;6.00;3.90;;;5.30;99.90;;;;;;6274294;22;20154;-53
2021/12/08 08:04:37;;;;;;;4.20;3.80;;;5.90;99.90;;;;;;6284606;22;20170;-52
2021/12/08 08:07:05;;;;;;;4.28;3.85;;;5.90;99.90;;;;;;6270364;22;20240;-55
2021/12/08 08:09:38;;;;;;;6.15;4.82;;;6.00;99.90;;;;;;6284242;22;20223;-52
2021/12/08 08:12:07;;;;;;;5.57;3.88;;;5.80;99.90;;;;;;6282688;22;20140;-52
2021/12/08 08:14:42;;;;;;;6.55;3.60;;;5.70;99.90;;;;;;6272945;22;20200;-52
2021/12/08 08:17:11;;;;;;;4.47;4.07;;;6.00;99.90;;;;;;6283480;22;20156;-52
2021/12/08 08:19:44;;;;;;;4.55;3.60;;;5.40;99.90;;;;;;6272561;22;20233;-50
2021/12/08 08:22:15;;;;;;;5.32;4.03;;;6.10;99.90;;;;;;6283736;22;20152;-49
2021/12/08 08:24:42;;;;;;;4.20;3.35;;;5.90;99.90;;;;;;6283776;22;20212;-50
2021/12/08 08:27:10;;;;;;;4.70;4.20;;;6.00;99.90;;;;;;6282898;22;20152;-49
2021/12/08 08:29:37;;;;;;;8.40;5.00;;;5.90;99.90;;;;;;6284090;22;20201;-49
2021/12/08 08:32:26;;;;;;;4.38;4.00;;;5.90;99.90;;;;;;6282886;22;20171;-52
2021/12/08 08:35:17;;;;;;;4.32;3.90;;;6.40;99.90;;;;;;6272351;22;20505;-52
2021/12/08 08:37:44;;;;;;;5.70;3.65;;;6.00;99.90;;;;;;6270842;22;20155;-51
2021/12/08 08:40:19;;;;;;;5.60;5.07;;;6.20;99.90;;;;;;6282477;22;20151;-51
2021/12/08 08:42:47;;;;;;;4.40;4.03;;;6.10;99.90;;;;;;6273705;22;20239;-51
2021/12/08 08:45:27;;;;;;;6.88;4.32;;;6.20;99.90;;;;;;6273307;22;20166;-50
2021/12/08 08:48:01;;;;;;;11.23;4.68;;;6.30;99.90;;;;;;6270709;22;20167;-52
2021/12/08 08:50:53;;;;;;;5.38;4.03;;;6.50;99.90;;;;;;6272993;22;20200;-50
2021/12/08 08:53:21;;;;;;;6.20;4.50;;;6.50;99.90;;;;;;6256345;22;20253;-52
2021/12/08 08:55:52;;;;;;;5.47;4.75;;;7.00;99.90;;;;;;6283282;22;20227;-51
2021/12/08 08:58:23;;;;;;;10.98;9.88;;;6.50;99.90;;;;;;6272619;22;20152;-50
2021/12/08 09:00:57;;;;;;;7.32;5.55;;;6.60;99.90;;;;;;6273142;22;20239;-53
2021/12/08 09:03:26;;;;;;;8.85;6.78;;;6.40;99.90;;;;;;6284778;22;20182;-52
2021/12/08 09:06:14;;;;;;;9.20;6.88;;;6.40;99.90;;;;;;6284126;22;20496;-52
2021/12/08 09:08:42;;;;;;;10.18;9.10;;;6.50;99.90;;;;;;6284324;22;20144;-52
2021/12/08 09:11:12;;;;;;;5.25;4.75;;;6.90;99.90;;;;;;6284805;22;20148;-52
2021/12/08 09:13:52;;;;;;;5.97;4.80;;;6.90;99.90;;;;;;6285270;22;20512;-53
2021/12/08 09:16:33;;;;;;;5.95;5.25;;;6.80;99.90;;;;;;6274365;22;20149;-52
2021/12/08 09:19:11;;;;;;;6.03;4.68;;;7.00;99.90;;;;;;6284432;22;20140;-51
2021/12/08 09:21:47;;;;;;;4.05;3.75;;;6.80;99.90;;;;;;6273809;22;20152;-52
2021/12/08 09:24:22;;;;;;;8.93;4.78;;;6.90;99.90;;;;;;6284315;22;20175;-49
2021/12/08 09:26:54;;;;;;;5.10;4.00;;;6.90;99.90;;;;;;6273832;22;20206;-50
2021/12/08 09:29:27;;;;;;;18.95;15.15;;;6.70;99.90;;;;;;6284646;22;20152;-52
2021/12/08 09:32:05;;;;;;;6.47;5.88;;;6.60;99.90;;;;;;6285402;22;20144;-53
2021/12/08 09:34:42;;;;;;;6.55;4.88;;;6.70;99.90;;;;;;6272319;22;20187;-53
2021/12/08 09:37:14;;;;;;;5.35;4.75;;;6.80;99.90;;;;;;6274436;22;20231;-53
2021/12/08 09:39:48;;;;;;;7.97;5.78;;;6.90;99.90;;;;;;6284990;22;20193;-55
2021/12/08 09:42:31;;;;;;;5.68;5.18;;;6.70;99.90;;;;;;6274431;22;20512;-52
2021/12/08 09:45:01;;;;;;;5.82;5.05;;;6.70;99.90;;;;;;6273589;22;20267;-52
2021/12/08 09:47:29;;;;;;;6.35;5.05;;;6.80;99.90;;;;;;6283745;22;20180;-52
2021/12/08 09:49:57;;;;;;;5.22;4.72;;;6.70;99.90;;;;;;6284001;22;20226;-52
2021/12/08 09:52:27;;;;;;;5.35;4.40;;;6.70;99.90;;;;;;6274679;22;20172;-52
2021/12/08 09:54:58;;;;;;;5.45;4.38;;;6.80;99.90;;;;;;6284280;22;20168;-52
2021/12/08 09:57:25;;;;;;;5.65;4.35;;;6.70;99.90;;;;;;6273190;22;20224;-52
2021/12/08 09:59:51;;;;;;;5.30;4.78;;;6.80;99.90;;;;;;6284304;22;20152;-50
2021/12/08 10:02:27;;;;;;;5.18;4.43;;;7.00;99.90;;;;;;6274233;22;20210;-50
2021/12/08 10:04:58;;;;;;;4.82;4.35;;;6.90;99.90;;;;;;6284626;22;20647;-51
2021/12/08 10:07:25;;;;;;;6.72;4.55;;;6.90;99.90;;;;;;6284468;22;20243;-50
2021/12/08 10:09:51;;;;;;;5.50;5.00;;;7.10;99.90;;;;;;6284334;22;20148;-50
2021/12/08 10:12:18;;;;;;;4.37;4.03;;;7.00;99.90;;;;;;6273830;22;20223;-50
2021/12/08 10:14:46;;;;;;;10.25;9.20;;;6.60;99.90;;;;;;6284308;22;20407;-51
2021/12/08 10:17:13;;;;;;;4.95;4.55;;;7.20;99.90;;;;;;6274532;22;20163;-52
2021/12/08 10:19:41;;;;;;;21.90;16.95;;;7.50;99.90;;;;;;6284386;22;20145;-51
2021/12/08 10:22:17;;;;;;;6.22;5.50;;;7.50;99.90;;;;;;6283183;22;20606;-49
2021/12/08 10:25:11;;;;;;;5.45;4.95;;;7.40;99.90;;;;;;6272211;22;20160;-51
2021/12/08 10:28:17;;;;;;;6.40;5.75;;;7.10;99.90;;;;;;6282698;22;20136;-49
2021/12/08 10:30:47;;;;;;;5.50;4.90;;;7.30;99.90;;;;;;6281819;22;20141;-51
2021/12/08 10:36:49;;;;;;;4.93;4.47;;;7.40;99.90;;;;;;6235183;22;20474;-51
2021/12/08 10:39:46;;;;;;;5.57;4.45;;;7.10;99.90;;;;;;6272120;22;20282;-51
2021/12/08 10:42:22;;;;;;;44.90;31.02;;;7.10;99.90;;;;;;6272585;22;20152;-51
2021/12/08 10:45:06;;;;;;;5.38;4.20;;;7.60;99.90;;;;;;6283032;22;20182;-51
2021/12/08 10:47:36;;;;;;;5.43;4.00;;;7.30;99.90;;;;;;6282677;22;20211;-51
2021/12/08 10:55:54;;;;;;;3.60;3.30;;;6.80;99.90;;;;;;6282604;22;20144;-51
2021/12/08 10:58:23;;;;;;;4.85;3.53;;;7.20;99.90;;;;;;6282860;22;20148;-52
2021/12/08 11:00:51;;;;;;;3.47;3.17;;;7.30;99.90;;;;;;6272312;22;20152;-51
2021/12/08 11:03:16;;;;;;;6.00;3.50;;;7.20;99.90;;;;;;6282901;22;20187;-51
2021/12/08 11:05:55;;;;;;;5.80;5.20;;;7.20;99.90;;;;;;6282345;22;20160;-52
2021/12/08 11:08:33;;;;;;;3.63;3.33;;;7.40;99.90;;;;;;6271806;22;20375;-50
2021/12/08 11:11:11;;;;;;;4.03;3.72;;;7.20;99.90;;;;;;6282071;22;20176;-52
2021/12/08 11:13:44;;;;;;;3.72;3.42;;;7.30;99.90;;;;;;6283205;22;20190;-52
2021/12/08 11:16:12;;;;;;;4.40;4.00;;;7.40;99.90;;;;;;6272102;22;20156;-52
2021/12/08 11:18:41;;;;;;;5.55;3.75;;;7.50;99.90;;;;;;6271776;22;20207;-51
2021/12/08 11:21:19;;;;;;;4.75;3.92;;;7.50;99.90;;;;;;6272002;22;20205;-51
2021/12/08 11:23:47;;;;;;;4.28;3.58;;;7.60;99.90;;;;;;6282625;22;20175;-51
2021/12/08 11:26:26;;;;;;;4.05;3.65;;;7.70;99.90;;;;;;6271932;22;20201;-52
2021/12/08 11:28:54;;;;;;;5.15;3.60;;;7.60;99.90;;;;;;6280368;22;20485;-51
2021/12/08 11:31:19;;;;;;;4.07;3.15;;;7.70;99.90;;;;;;6281269;22;20263;-51
2021/12/08 11:33:59;;;;;;;4.13;3.30;;;7.70;99.90;;;;;;6283449;22;20200;-51
2021/12/08 11:36:28;;;;;;;4.70;3.90;;;7.40;99.90;;;;;;6285363;22;20239;-50
2021/12/08 11:38:54;;;;;;;4.40;3.63;;;7.30;99.90;;;;;;6282682;22;20149;-52
2021/12/08 11:41:38;;;;;;;3.30;3.10;;;6.90;99.90;;;;;;6273188;22;20248;-52
2021/12/08 11:44:12;;;;;;;3.45;3.05;;;7.50;99.90;;;;;;6283975;22;20403;-52
2021/12/08 11:46:42;;;;;;;3.33;3.00;;;7.50;99.90;;;;;;6284043;22;20221;-52
2021/12/08 11:49:09;;;;;;;119.85;92.65;;;7.80;99.90;;;;;;6271496;22;20604;-52
2021/12/08 11:51:44;;;;;;;6.25;4.40;;;7.40;99.90;;;;;;6283712;22;20193;-51
2021/12/08 11:54:50;;;;;;;10.95;8.40;;;7.60;99.90;;;;;;6284007;22;20270;-50
2021/12/08 11:57:28;;;;;;;5.05;4.30;;;7.70;99.90;;;;;;6149728;23;20183;-50
2021/12/08 11:59:58;;;;;;;3.53;3.22;;;7.80;99.90;;;;;;6272545;22;20156;-50
2021/12/08 12:02:28;;;;;;;3.63;3.33;;;7.60;99.90;;;;;;6284338;22;20460;-50
2021/12/08 12:04:54;;;;;;;9.73;6.72;;;7.80;99.90;;;;;;6284274;22;20156;-50
2021/12/08 12:07:20;;;;;;;8.10;4.50;;;7.70;99.90;;;;;;6273415;22;20562;-51
2021/12/08 12:09:47;;;;;;;4.87;3.93;;;8.00;99.90;;;;;;6284388;22;20152;-52
2021/12/08 12:12:14;;;;;;;4.90;3.95;;;7.60;99.90;;;;;;6273380;22;20157;-51
2021/12/08 12:14:40;;;;;;;7.28;5.72;;;7.70;99.90;;;;;;6274163;22;20526;-52
2021/12/08 12:17:06;;;;;;;5.07;4.57;;;7.40;99.90;;;;;;6282885;22;20206;-51
2021/12/08 12:19:45;;;;;;;4.60;4.20;;;7.60;99.90;;;;;;6284626;22;20389;-52
2021/12/08 12:22:39;;;;;;;4.40;4.00;;;7.60;99.90;;;;;;6274195;22;20430;-51
2021/12/08 12:25:56;;;;;;;5.20;4.32;;;7.40;99.90;;;;;;6271019;22;20221;-50
2021/12/08 12:28:39;;;;;;;4.80;4.40;;;7.20;99.90;;;;;;6215411;22;20603;-50
2021/12/08 12:31:32;;;;;;;6.38;5.40;;;7.30;99.90;;;;;;6284305;22;20192;-52
2021/12/08 12:33:58;;;;;;;12.18;9.98;;;7.70;99.90;;;;;;6285629;22;20661;-52
2021/12/08 12:36:34;;;;;;;5.07;4.60;;;7.40;99.90;;;;;;6274846;22;20535;-51
2021/12/08 12:39:13;;;;;;;5.18;4.55;;;7.60;99.90;;;;;;6285367;22;20151;-51
2021/12/08 12:41:40;;;;;;;9.82;6.43;;;7.70;99.90;;;;;;6284650;22;20237;-51
2021/12/08 12:44:22;;;;;;;5.07;4.57;;;7.60;99.90;;;;;;6286043;22;20171;-51
2021/12/08 12:47:08;;;;;;;6.15;5.45;;;7.50;99.90;;;;;;6275566;22;20671;-52
2021/12/08 12:49:38;;;;;;;5.45;4.90;;;7.50;99.90;;;;;;6285936;22;20148;-52
2021/12/08 12:52:07;;;;;;;5.22;4.82;;;7.60;99.90;;;;;;6285347;22;20168;-51
2021/12/08 12:54:34;;;;;;;6.10;5.07;;;7.70;99.90;;;;;;6275852;22;20172;-51
2021/12/08 12:57:00;;;;;;;4.85;4.45;;;7.60;99.90;;;;;;6285260;22;20451;-51
2021/12/08 12:59:46;;;;;;;13.55;11.50;;;7.70;99.90;;;;;;6285412;22;20638;-52
2021/12/08 13:02:23;;;;;;;28.70;22.40;;;7.60;99.90;;;;;;6285497;22;20193;-53
2021/12/08 13:04:56;;;;;;;8.40;7.07;;;7.90;99.90;;;;;;6285428;22;20379;-51
2021/12/08 13:07:22;;;;;;;7.65;6.25;;;7.50;99.90;;;;;;6283614;22;20155;-51
2021/12/08 13:09:56;;;;;;;13.57;12.00;;;7.70;99.90;;;;;;6283525;22;20606;-51
2021/12/08 13:12:40;;;;;;;7.15;4.65;;;7.40;99.90;;;;;;6283301;22;20294;-51
2021/12/08 13:15:13;;;;;;;4.50;4.00;;;7.00;99.90;;;;;;6273397;22;20227;-51
2021/12/08 13:17:57;;;;;;;4.93;4.30;;;7.80;99.90;;;;;;6283180;22;20282;-51
2021/12/08 13:20:26;;;;;;;6.13;4.82;;;7.90;99.90;;;;;;6283688;22;20479;-51
2021/12/08 13:22:59;;;;;;;7.30;6.60;;;7.90;99.90;;;;;;6283655;22;20203;-50
2021/12/08 13:34:02;;;;;;;5.35;4.40;;;7.20;99.90;;;;;;6283648;22;20199;-51
2021/12/08 13:36:43;;;;;;;5.28;4.85;;;7.50;99.90;;;;;;6283599;22;20128;-50
2021/12/08 13:39:24;;;;;;;4.93;4.35;;;7.50;99.90;;;;;;6273271;22;20180;-52
2021/12/08 13:42:08;;;;;;;4.75;4.35;;;7.70;99.90;;;;;;6282337;22;20148;-52
2021/12/08 13:44:59;;;;;;;4.57;4.10;;;7.60;99.90;;;;;;6273065;22;20179;-52
2021/12/08 13:47:35;;;;;;;4.53;4.15;;;7.60;99.90;;;;;;6271326;22;20631;-52
2021/12/08 13:50:23;;;;;;;5.15;4.65;;;7.70;99.90;;;;;;6272851;22;20610;-52
2021/12/08 13:53:00;;;;;;;4.78;4.25;;;7.20;99.90;;;;;;6282860;22;20193;-52
2021/12/08 13:55:28;;;;;;;5.25;4.35;;;7.60;99.90;;;;;;6283430;22;20571;-52
2021/12/08 13:58:09;;;;;;;5.35;4.85;;;7.40;99.90;;;;;;6283088;22;20144;-52
2021/12/08 14:00:47;;;;;;;5.85;4.82;;;7.00;99.90;;;;;;6272964;22;20250;-51
2021/12/08 14:03:21;;;;;;;8.93;5.72;;;7.30;99.90;;;;;;6271836;22;20183;-51
2021/12/08 14:05:54;;;;;;;6.88;6.18;;;7.30;99.90;;;;;;6283482;22;20230;-51
2021/12/08 14:08:22;;;;;;;9.90;5.05;;;7.00;99.90;;;;;;6272923;22;20256;-51
2021/12/08 14:10:52;;;;;;;6.50;5.22;;;7.00;99.90;;;;;;6272435;22;20623;-51
2021/12/08 14:13:25;;;;;;;5.47;4.72;;;7.10;99.90;;;;;;6272559;22;20581;-51
2021/12/08 14:16:02;;;;;;;5.72;5.05;;;7.40;99.90;;;;;;6273038;22;20148;-51
2021/12/08 14:18:32;;;;;;;6.32;5.57;;;6.90;99.90;;;;;;6282751;22;20138;-52